Time;durP1;ratioP1;P1;durP2;ratioP2;P2;SDS_P1;SDS_P2;PMS_P1;PMS_P2;Temp;Humidity;BMP_temperature;BMP_pressure;BME280_temperature;BME280_humidity;BME280_pressure;Samples;Min_cycle;Max_cycle;Signal;HPM_P1;HPM_P2
2022/07/01 00:01:43;;;;;;;20.38;14.75;;;14.70;99.90;;;;;;5012637;28;20018;-78
2022/07/01 00:04:10;;;;;;;20.48;13.70;;;14.70;99.90;;;;;;5013807;28;20018;-79
2022/07/01 00:06:37;;;;;;;23.13;16.20;;;14.70;99.90;;;;;;5012782;28;20049;-79
2022/07/01 00:09:04;;;;;;;21.75;15.23;;;14.70;99.90;;;;;;5013877;28;20029;-79
2022/07/01 00:11:31;;;;;;;23.23;15.43;;;14.60;99.90;;;;;;5013759;28;20387;-78
2022/07/01 00:13:56;;;;;;;22.95;15.23;;;14.60;99.90;;;;;;5012533;28;20113;-77
2022/07/01 00:16:22;;;;;;;22.65;14.27;;;14.60;99.90;;;;;;5012630;28;20108;-80
2022/07/01 00:18:48;;;;;;;21.98;15.02;;;14.60;99.90;;;;;;5013640;28;20026;-79
2022/07/01 00:21:14;;;;;;;21.67;15.48;;;14.60;99.90;;;;;;5012467;28;20504;-80
2022/07/01 00:23:40;;;;;;;21.42;15.43;;;14.50;99.90;;;;;;5013349;28;20045;-79
2022/07/01 00:26:06;;;;;;;20.42;13.68;;;14.50;99.90;;;;;;5012445;28;20038;-80
2022/07/01 00:28:32;;;;;;;23.33;15.25;;;14.50;99.90;;;;;;5012466;28;20030;-79
2022/07/01 00:30:57;;;;;;;21.80;14.75;;;14.50;99.90;;;;;;5013428;28;20430;-79
2022/07/01 00:33:23;;;;;;;24.13;15.85;;;14.50;99.90;;;;;;5012278;28;20029;-80
2022/07/01 00:35:49;;;;;;;23.10;15.82;;;14.40;99.90;;;;;;5012236;28;20425;-80
2022/07/01 00:38:14;;;;;;;23.25;15.20;;;14.40;99.90;;;;;;5012333;28;20080;-79
2022/07/01 00:40:40;;;;;;;22.20;14.35;;;14.40;99.90;;;;;;5012201;28;20030;-79
2022/07/01 00:43:05;;;;;;;22.10;14.60;;;14.40;99.90;;;;;;5013348;28;20034;-79
2022/07/01 00:45:31;;;;;;;21.25;14.43;;;14.50;99.90;;;;;;4999115;28;20029;-79
2022/07/01 00:47:57;;;;;;;20.05;13.32;;;14.50;99.90;;;;;;4999655;28;20022;-80
2022/07/01 00:50:23;;;;;;;20.40;12.77;;;14.50;99.90;;;;;;5017427;28;20484;-78
2022/07/01 00:52:48;;;;;;;20.85;14.52;;;14.50;99.90;;;;;;5016938;28;20033;-78
2022/07/01 00:55:15;;;;;;;23.05;16.30;;;14.60;99.90;;;;;;4983480;28;20404;-79
2022/07/01 00:57:42;;;;;;;24.58;15.85;;;14.60;99.90;;;;;;5017454;28;20056;-79
2022/07/01 01:00:15;;;;;;;24.10;14.85;;;14.60;99.90;;;;;;5015913;28;20049;-77
2022/07/01 01:02:41;;;;;;;23.92;16.40;;;14.70;99.90;;;;;;5017069;28;20022;-78
2022/07/01 01:05:08;;;;;;;27.70;17.17;;;14.60;99.90;;;;;;5017095;28;20022;-78
2022/07/01 01:07:34;;;;;;;28.48;17.90;;;14.70;99.90;;;;;;4999353;28;20026;-78
2022/07/01 01:10:04;;;;;;;30.75;19.48;;;14.60;99.90;;;;;;5015808;28;20462;-79
2022/07/01 01:12:30;;;;;;;36.97;22.92;;;14.70;99.90;;;;;;5016951;28;20069;-79
2022/07/01 01:14:57;;;;;;;37.60;22.25;;;14.60;99.90;;;;;;5016819;28;20037;-80
2022/07/01 01:17:23;;;;;;;46.88;27.52;;;14.70;99.90;;;;;;5016798;28;20065;-79
2022/07/01 01:19:50;;;;;;;52.03;28.38;;;14.70;99.90;;;;;;5016907;28;20030;-77
2022/07/01 01:22:16;;;;;;;45.42;27.73;;;14.60;99.90;;;;;;5015308;28;20046;-79
2022/07/01 01:24:43;;;;;;;46.92;26.75;;;14.60;99.90;;;;;;5015500;28;20022;-80
2022/07/01 01:27:09;;;;;;;50.60;30.38;;;14.60;99.90;;;;;;5015877;28;20080;-77
2022/07/01 01:29:36;;;;;;;53.78;31.40;;;14.60;99.90;;;;;;5016547;28;20367;-77
2022/07/01 01:32:03;;;;;;;51.92;32.35;;;14.60;99.90;;;;;;5017005;28;20108;-79
2022/07/01 01:34:29;;;;;;;54.97;33.33;;;14.60;99.90;;;;;;5016527;28;20145;-78
2022/07/01 01:36:55;;;;;;;57.63;33.75;;;14.50;99.90;;;;;;5016494;28;20097;-77
2022/07/01 01:39:20;;;;;;;57.60;31.95;;;14.50;99.90;;;;;;5015111;28;20501;-78
2022/07/01 01:41:47;;;;;;;54.95;33.03;;;14.50;99.90;;;;;;5016233;28;20030;-78
2022/07/01 01:44:13;;;;;;;54.45;32.33;;;14.50;99.90;;;;;;5016213;28;20029;-78
2022/07/01 01:46:38;;;;;;;55.53;33.63;;;14.50;99.90;;;;;;5016199;28;20382;-78
2022/07/01 01:49:05;;;;;;;58.70;36.63;;;14.50;99.90;;;;;;5016229;28;20383;-78
2022/07/01 01:51:31;;;;;;;58.20;36.40;;;14.50;99.90;;;;;;5026678;28;20485;-79
2022/07/01 01:53:57;;;;;;;54.80;35.78;;;14.40;99.90;;;;;;5035740;28;20040;-79
2022/07/01 01:56:23;;;;;;;54.20;32.80;;;14.40;99.90;;;;;;5017508;28;20036;-78
2022/07/01 01:58:49;;;;;;;53.50;35.42;;;14.40;99.90;;;;;;5034484;28;20051;-78
2022/07/01 02:01:17;;;;;;;55.50;35.65;;;14.40;99.90;;;;;;5035859;28;20032;-79
2022/07/01 02:03:44;;;;;;;62.80;37.17;;;14.40;99.90;;;;;;5035594;28;20025;-80
2022/07/01 02:06:11;;;;;;;56.78;36.70;;;14.40;99.90;;;;;;5035550;28;20021;-80
2022/07/01 02:08:37;;;;;;;57.88;37.03;;;14.40;99.90;;;;;;5034436;28;20030;-79
2022/07/01 02:11:04;;;;;;;54.83;34.17;;;14.40;99.90;;;;;;5035709;28;20029;-79
2022/07/01 02:13:29;;;;;;;56.80;37.33;;;14.40;99.90;;;;;;5035587;28;20037;-77
2022/07/01 02:15:56;;;;;;;58.30;37.70;;;14.40;99.90;;;;;;5035718;28;20021;-80
2022/07/01 02:18:22;;;;;;;58.03;35.97;;;14.40;99.90;;;;;;5035373;28;20029;-79
2022/07/01 02:20:47;;;;;;;58.85;38.45;;;14.40;99.90;;;;;;5035312;28;20385;-79
2022/07/01 02:23:13;;;;;;;56.50;34.97;;;14.40;99.90;;;;;;5035140;28;20077;-79
2022/07/01 02:25:39;;;;;;;52.90;35.33;;;14.40;99.90;;;;;;5035274;28;20072;-80
2022/07/01 02:28:04;;;;;;;53.35;35.83;;;14.40;99.90;;;;;;5035390;28;20037;-78
2022/07/01 02:30:30;;;;;;;51.00;34.20;;;14.30;99.90;;;;;;5035340;28;20104;-79
2022/07/01 02:32:56;;;;;;;49.45;32.58;;;14.40;99.90;;;;;;5034261;28;20034;-78
2022/07/01 02:35:22;;;;;;;52.03;32.53;;;14.40;99.90;;;;;;5035638;28;20115;-78
2022/07/01 02:37:48;;;;;;;54.33;34.38;;;14.40;99.90;;;;;;5033972;28;20137;-77
2022/07/01 02:40:13;;;;;;;47.72;30.98;;;14.40;99.90;;;;;;5034567;28;20030;-79
2022/07/01 02:42:39;;;;;;;51.10;30.40;;;14.30;99.90;;;;;;5034832;28;20026;-78
2022/07/01 02:45:07;;;;;;;48.88;30.90;;;14.30;99.90;;;;;;5035087;28;20029;-79
2022/07/01 02:47:39;;;;;;;44.70;30.75;;;14.40;99.90;;;;;;5017452;28;20503;-78
2022/07/01 02:50:07;;;;;;;44.05;30.27;;;14.30;99.90;;;;;;5033701;28;20559;-78
2022/07/01 02:52:34;;;;;;;50.13;32.38;;;14.30;99.90;;;;;;5034660;28;20117;-79
2022/07/01 02:55:04;;;;;;;50.20;31.83;;;14.30;99.90;;;;;;5034647;28;20029;-78
2022/07/01 02:57:30;;;;;;;45.70;28.73;;;14.30;99.90;;;;;;5034697;28;20072;-78
2022/07/01 02:59:56;;;;;;;41.25;27.88;;;14.30;99.90;;;;;;5034607;28;20485;-79
2022/07/01 03:02:22;;;;;;;46.15;29.30;;;14.30;99.90;;;;;;5033122;28;20036;-78
2022/07/01 03:04:49;;;;;;;49.13;28.90;;;14.30;99.90;;;;;;5033371;28;20025;-78
2022/07/01 03:07:16;;;;;;;43.78;28.50;;;14.30;99.90;;;;;;5033821;28;20049;-77
2022/07/01 03:09:41;;;;;;;46.92;30.05;;;14.30;99.90;;;;;;5034365;28;20429;-78
2022/07/01 03:15:12;;;;;;;52.22;33.40;;;14.30;99.90;;;;;;5033243;28;20481;-79
2022/07/01 03:17:40;;;;;;;47.53;31.13;;;14.30;99.90;;;;;;5033014;28;20388;-78
2022/07/01 03:20:08;;;;;;;47.72;30.10;;;14.20;99.90;;;;;;5034417;28;20026;-78
2022/07/01 03:22:35;;;;;;;46.17;30.92;;;14.20;99.90;;;;;;5016513;28;20049;-78
2022/07/01 03:25:02;;;;;;;44.25;28.33;;;14.20;99.90;;;;;;5034215;28;20022;-78
2022/07/01 03:27:28;;;;;;;44.97;29.88;;;14.10;99.90;;;;;;5034361;28;20379;-79
2022/07/01 03:29:54;;;;;;;52.22;32.55;;;14.10;99.90;;;;;;5033961;28;20022;-78
2022/07/01 03:32:20;;;;;;;51.10;32.22;;;14.00;99.90;;;;;;5033997;28;20108;-79
2022/07/01 03:34:47;;;;;;;53.35;31.98;;;14.10;99.90;;;;;;5033959;28;20041;-78
2022/07/01 03:37:14;;;;;;;48.17;30.55;;;14.00;99.90;;;;;;5033883;28;20025;-77
2022/07/01 03:39:41;;;;;;;49.08;30.42;;;14.00;99.90;;;;;;5032729;28;20030;-78
2022/07/01 03:42:08;;;;;;;50.33;30.90;;;14.00;99.90;;;;;;5032617;28;20034;-77
2022/07/01 03:44:35;;;;;;;48.08;28.88;;;14.00;99.90;;;;;;5032804;28;20029;-78
2022/07/01 03:47:01;;;;;;;50.08;29.98;;;14.00;99.90;;;;;;5032518;28;20022;-78
2022/07/01 03:49:27;;;;;;;45.92;29.13;;;14.00;99.90;;;;;;5032573;28;20029;-78
2022/07/01 03:51:53;;;;;;;52.47;32.88;;;14.00;99.90;;;;;;5033950;28;20018;-77
2022/07/01 03:54:38;;;;;;;51.17;31.52;;;14.00;99.90;;;;;;5032391;28;20025;-78
2022/07/01 03:57:05;;;;;;;54.00;30.05;;;14.00;99.90;;;;;;5032647;28;20437;-77
2022/07/01 03:59:35;;;;;;;50.95;30.42;;;14.00;99.90;;;;;;5033759;28;20354;-78
2022/07/01 04:02:00;;;;;;;45.45;26.92;;;14.00;99.90;;;;;;5032363;28;20037;-80
2022/07/01 04:04:27;;;;;;;46.88;29.15;;;14.00;99.90;;;;;;5032268;28;20033;-78
2022/07/01 04:06:53;;;;;;;47.92;28.02;;;14.10;99.90;;;;;;5033665;28;20030;-77
2022/07/01 04:09:20;;;;;;;48.03;27.25;;;14.10;99.90;;;;;;5015787;28;20032;-78
2022/07/01 04:11:47;;;;;;;48.25;28.15;;;14.10;99.90;;;;;;5033524;28;20075;-77
2022/07/01 04:14:13;;;;;;;47.78;29.48;;;14.10;99.90;;;;;;5033512;28;20025;-77
2022/07/01 04:16:39;;;;;;;49.65;27.92;;;14.10;99.90;;;;;;5033645;28;20032;-77
2022/07/01 04:19:04;;;;;;;50.00;29.25;;;14.10;99.90;;;;;;5033077;28;20463;-77
2022/07/01 04:24:15;;;;;;;47.83;27.92;;;14.20;99.90;;;;;;5029377;28;20048;-78
2022/07/01 04:26:41;;;;;;;48.15;27.67;;;14.20;99.90;;;;;;5032366;28;20030;-78
2022/07/01 04:29:07;;;;;;;52.13;29.63;;;14.20;99.90;;;;;;5028281;28;20482;-77
2022/07/01 04:31:39;;;;;;;47.30;27.50;;;14.20;99.90;;;;;;5032349;28;20036;-78
2022/07/01 04:34:06;;;;;;;48.28;27.35;;;14.30;99.90;;;;;;5012312;28;20113;-78
2022/07/01 04:36:32;;;;;;;48.50;26.65;;;14.30;99.90;;;;;;5013505;28;20113;-77
2022/07/01 04:38:58;;;;;;;48.67;28.50;;;14.30;99.90;;;;;;5013462;28;20030;-77
2022/07/01 04:44:08;;;;;;;56.97;29.60;;;14.30;99.90;;;;;;5013503;28;20501;-78
2022/07/01 04:46:34;;;;;;;55.08;30.67;;;14.30;99.90;;;;;;5013474;28;20018;-77
2022/07/01 04:49:00;;;;;;;55.67;29.45;;;14.30;99.90;;;;;;5012182;28;20033;-78
2022/07/01 04:51:26;;;;;;;56.17;29.98;;;14.40;99.90;;;;;;5013349;28;20034;-77
2022/07/01 04:53:51;;;;;;;58.85;29.23;;;14.40;99.90;;;;;;5012152;28;20038;-78
2022/07/01 04:56:17;;;;;;;53.72;27.55;;;14.40;99.90;;;;;;4998445;28;20034;-77
2022/07/01 04:58:43;;;;;;;60.05;29.95;;;14.40;99.90;;;;;;5011579;28;20435;-77
2022/07/01 05:01:08;;;;;;;51.47;28.13;;;14.50;99.90;;;;;;5021066;28;20025;-77
2022/07/01 05:03:34;;;;;;;51.17;29.85;;;14.50;99.90;;;;;;5032812;28;20033;-77
2022/07/01 05:06:00;;;;;;;53.42;29.50;;;14.40;99.90;;;;;;5031700;28;20474;-76
2022/07/01 05:08:26;;;;;;;49.92;28.02;;;14.50;99.90;;;;;;5027263;28;20098;-77
2022/07/01 05:10:51;;;;;;;50.97;30.35;;;14.60;99.90;;;;;;5016101;28;20022;-77
2022/07/01 05:13:17;;;;;;;49.05;26.75;;;14.60;99.90;;;;;;5022845;28;20026;-78
2022/07/01 05:15:42;;;;;;;48.75;27.65;;;14.60;99.90;;;;;;5018202;28;20036;-77
2022/07/01 05:23:36;;;;;;;52.10;28.13;;;14.70;99.90;;;;;;5026450;28;20053;-77
2022/07/01 05:26:03;;;;;;;48.47;26.88;;;14.80;99.90;;;;;;5015631;28;20475;-77
2022/07/01 05:28:28;;;;;;;50.67;27.08;;;14.80;99.90;;;;;;5015254;28;20022;-77
2022/07/01 05:30:54;;;;;;;52.63;30.13;;;14.80;99.90;;;;;;5034150;28;20458;-76
2022/07/01 05:33:21;;;;;;;43.60;26.20;;;14.90;99.90;;;;;;5036159;28;20040;-77
2022/07/01 05:35:47;;;;;;;43.67;26.38;;;14.90;99.90;;;;;;5036255;28;20049;-78
2022/07/01 05:38:13;;;;;;;46.38;25.50;;;14.90;99.90;;;;;;5036220;28;20041;-78
2022/07/01 05:40:39;;;;;;;47.83;27.92;;;14.90;99.90;;;;;;5034752;28;20026;-78
2022/07/01 05:43:04;;;;;;;52.38;29.88;;;15.00;99.90;;;;;;5034842;28;20064;-78
2022/07/01 05:45:30;;;;;;;51.70;29.02;;;15.00;99.90;;;;;;5018134;28;20573;-78
2022/07/01 05:47:56;;;;;;;49.50;28.88;;;15.00;99.90;;;;;;5034831;28;20039;-78
2022/07/01 05:50:22;;;;;;;53.30;29.38;;;15.00;99.90;;;;;;5018281;28;20049;-79
2022/07/01 05:52:48;;;;;;;49.60;27.85;;;15.00;99.90;;;;;;5034468;28;20022;-78
2022/07/01 05:55:14;;;;;;;52.33;28.15;;;15.00;99.90;;;;;;5035894;28;20030;-78
2022/07/01 05:57:40;;;;;;;47.00;27.67;;;15.00;99.90;;;;;;5035703;28;20091;-79
2022/07/01 06:00:06;;;;;;;44.80;26.63;;;15.00;99.90;;;;;;5036183;28;20064;-79
2022/07/01 06:02:32;;;;;;;44.38;25.85;;;15.10;99.90;;;;;;5034652;28;20486;-77
2022/07/01 06:04:59;;;;;;;45.67;25.50;;;15.10;99.90;;;;;;5034589;28;20029;-77
2022/07/01 06:07:24;;;;;;;47.40;26.77;;;15.10;99.90;;;;;;5035779;28;20056;-77
2022/07/01 06:09:50;;;;;;;41.10;25.25;;;15.20;99.90;;;;;;5018111;28;20064;-77
2022/07/01 06:12:16;;;;;;;42.08;25.42;;;15.20;99.90;;;;;;5035807;28;20122;-74
2022/07/01 06:14:42;;;;;;;45.80;24.63;;;15.30;99.90;;;;;;5001999;28;20056;-75
2022/07/01 06:17:09;;;;;;;43.88;25.85;;;15.30;99.90;;;;;;5017971;28;20075;-73
2022/07/01 06:19:34;;;;;;;35.30;23.35;;;15.40;99.90;;;;;;5035374;28;20071;-73
2022/07/01 06:22:00;;;;;;;43.10;25.42;;;15.40;99.90;;;;;;5017619;28;20025;-74
2022/07/01 06:24:26;;;;;;;44.83;26.70;;;15.40;99.90;;;;;;5017296;28;20037;-74
2022/07/01 06:26:51;;;;;;;42.42;25.98;;;15.30;99.90;;;;;;5033881;28;20413;-74
2022/07/01 06:29:17;;;;;;;40.53;26.27;;;15.40;99.90;;;;;;5035287;28;20495;-74
2022/07/01 06:31:43;;;;;;;41.75;25.92;;;15.40;99.90;;;;;;5033921;28;20476;-74
2022/07/01 06:34:08;;;;;;;39.83;25.70;;;15.40;99.90;;;;;;5017663;28;20389;-74
2022/07/01 06:36:34;;;;;;;38.60;22.83;;;15.40;99.90;;;;;;5017515;28;20079;-74
2022/07/01 06:38:59;;;;;;;33.83;22.55;;;15.40;99.90;;;;;;5035127;28;20034;-74
2022/07/01 06:41:27;;;;;;;35.85;23.33;;;15.40;99.90;;;;;;5034187;28;20034;-74
2022/07/01 06:44:02;;;;;;;36.15;24.10;;;15.50;99.90;;;;;;5017668;28;20033;-75
2022/07/01 06:46:29;;;;;;;36.72;23.70;;;15.50;99.90;;;;;;5033951;28;20018;-75
2022/07/01 06:48:55;;;;;;;39.90;23.42;;;15.60;99.90;;;;;;5033718;28;20474;-75
2022/07/01 06:51:21;;;;;;;37.42;23.00;;;15.50;99.90;;;;;;5033762;28;20029;-75
2022/07/01 06:53:47;;;;;;;33.80;21.48;;;15.50;99.90;;;;;;5034950;28;20056;-76
2022/07/01 06:56:13;;;;;;;36.45;22.73;;;15.40;99.90;;;;;;5017009;28;20028;-73
2022/07/01 06:58:40;;;;;;;34.08;21.58;;;15.40;99.90;;;;;;5033436;28;20022;-74
2022/07/01 07:01:06;;;;;;;37.22;21.92;;;15.30;99.90;;;;;;5033374;28;20021;-75
2022/07/01 07:03:32;;;;;;;35.03;22.55;;;15.30;99.90;;;;;;5034418;28;20017;-74
2022/07/01 07:06:00;;;;;;;30.63;19.73;;;15.30;99.90;;;;;;5034536;28;20056;-73
2022/07/01 07:08:29;;;;;;;35.03;20.70;;;15.20;99.90;;;;;;5034512;28;20021;-73
2022/07/01 07:10:55;;;;;;;32.17;20.48;;;15.30;99.90;;;;;;5033162;28;20022;-75
2022/07/01 07:13:20;;;;;;;33.92;21.27;;;15.30;99.90;;;;;;5034570;28;20029;-75
2022/07/01 07:15:46;;;;;;;34.70;21.63;;;15.30;99.90;;;;;;5033430;28;20034;-75
2022/07/01 07:18:12;;;;;;;35.55;22.85;;;15.30;99.90;;;;;;5032878;28;20061;-75
2022/07/01 07:20:38;;;;;;;33.72;21.20;;;15.30;99.90;;;;;;5032880;28;20036;-74
2022/07/01 07:23:04;;;;;;;32.53;20.55;;;15.40;99.90;;;;;;5033902;28;20480;-75
2022/07/01 07:25:29;;;;;;;34.47;20.05;;;15.40;99.90;;;;;;5016336;28;20497;-75
2022/07/01 07:27:55;;;;;;;30.52;20.23;;;15.40;99.90;;;;;;5032732;28;20026;-75
2022/07/01 07:30:21;;;;;;;33.90;20.17;;;15.50;99.90;;;;;;5032870;28;20033;-75
2022/07/01 07:32:47;;;;;;;24.90;17.17;;;15.50;99.90;;;;;;5032950;28;20041;-75
2022/07/01 07:35:12;;;;;;;31.20;19.23;;;15.60;99.90;;;;;;5032665;28;20382;-76
2022/07/01 07:37:39;;;;;;;31.65;19.35;;;15.70;99.90;;;;;;5033946;28;20100;-76
2022/07/01 07:40:09;;;;;;;29.08;19.85;;;15.80;99.90;;;;;;5032546;28;20025;-74
2022/07/01 07:42:36;;;;;;;30.60;18.92;;;15.90;99.90;;;;;;5033668;28;20552;-74
2022/07/01 07:45:02;;;;;;;23.83;15.93;;;16.00;99.90;;;;;;5016268;28;20021;-74
2022/07/01 07:47:28;;;;;;;24.73;17.33;;;16.20;99.90;;;;;;5032409;28;20493;-76
2022/07/01 07:49:54;;;;;;;24.95;16.85;;;16.30;99.90;;;;;;5015954;28;20030;-76
2022/07/01 07:52:20;;;;;;;20.90;14.35;;;16.40;99.90;;;;;;5032711;28;20026;-78
2022/07/01 07:54:45;;;;;;;21.58;15.77;;;16.60;99.90;;;;;;5033712;28;20488;-79
2022/07/01 07:57:11;;;;;;;24.60;15.63;;;16.70;99.90;;;;;;5032398;28;20032;-80
2022/07/01 07:59:37;;;;;;;23.50;13.85;;;16.80;99.90;;;;;;5032304;28;20079;-79
2022/07/01 08:02:03;;;;;;;20.20;14.32;;;16.80;99.90;;;;;;5033624;28;20021;-79
2022/07/01 08:04:28;;;;;;;18.50;12.90;;;16.90;99.90;;;;;;5032356;28;20029;-78
2022/07/01 08:06:54;;;;;;;18.90;12.43;;;17.00;99.90;;;;;;5016157;28;20021;-78
2022/07/01 08:09:20;;;;;;;18.40;12.05;;;17.00;99.70;;;;;;4999495;28;20520;-79
2022/07/01 08:11:45;;;;;;;17.02;12.15;;;17.00;99.60;;;;;;5033728;28;20029;-82
2022/07/01 08:14:11;;;;;;;20.60;12.48;;;17.10;99.70;;;;;;5016271;28;20061;-75
2022/07/01 08:16:37;;;;;;;20.13;12.35;;;17.20;99.30;;;;;;5033849;28;20053;-74
2022/07/01 08:19:03;;;;;;;16.45;10.45;;;17.30;99.30;;;;;;5032157;28;20026;-75
2022/07/01 08:21:29;;;;;;;14.57;10.23;;;17.40;98.80;;;;;;5016183;28;20481;-75
2022/07/01 08:23:55;;;;;;;14.55;8.13;;;17.40;98.60;;;;;;4999300;28;20140;-75
2022/07/01 08:26:21;;;;;;;19.80;9.05;;;17.50;98.20;;;;;;5015742;28;20140;-74
2022/07/01 08:28:47;;;;;;;12.30;6.53;;;17.60;97.60;;;;;;5015800;28;20026;-74
2022/07/01 08:31:13;;;;;;;12.07;5.70;;;17.60;97.40;;;;;;5032229;28;20022;-75
2022/07/01 08:33:40;;;;;;;12.77;5.35;;;17.70;96.80;;;;;;5016357;28;20079;-75
2022/07/01 08:36:06;;;;;;;10.23;3.90;;;17.70;96.50;;;;;;5030909;28;20025;-75
2022/07/01 08:38:32;;;;;;;11.43;4.60;;;17.70;96.80;;;;;;5030494;28;20064;-74
2022/07/01 08:40:58;;;;;;;8.25;4.03;;;17.80;96.50;;;;;;5031672;28;20481;-75
2022/07/01 08:43:24;;;;;;;13.23;4.90;;;17.80;95.70;;;;;;5031369;28;20048;-75
2022/07/01 08:45:52;;;;;;;9.82;3.80;;;17.90;95.40;;;;;;5015426;28;20112;-75
2022/07/01 08:48:17;;;;;;;8.02;2.97;;;17.90;95.70;;;;;;5031545;28;20014;-74
2022/07/01 08:50:43;;;;;;;9.93;3.35;;;18.00;94.70;;;;;;5031681;28;20037;-76
2022/07/01 08:53:11;;;;;;;7.18;2.47;;;18.00;94.80;;;;;;5015299;28;20055;-74
2022/07/01 08:58:27;;;;;;;5.63;2.33;;;18.10;94.00;;;;;;5012403;28;20057;-74
2022/07/01 09:00:53;;;;;;;9.23;2.53;;;18.10;94.00;;;;;;5012862;28;20038;-74
2022/07/01 09:03:23;;;;;;;7.93;2.40;;;18.10;93.60;;;;;;4996105;28;20033;-74
2022/07/01 09:05:52;;;;;;;4.70;1.52;;;18.10;93.20;;;;;;5014613;28;20041;-74
2022/07/01 09:08:19;;;;;;;6.35;1.27;;;18.20;92.90;;;;;;5015958;28;20489;-74
2022/07/01 09:10:45;;;;;;;3.58;1.50;;;18.20;91.90;;;;;;5015879;28;20096;-74
2022/07/01 09:13:12;;;;;;;5.43;1.50;;;18.10;92.00;;;;;;5015915;28;20088;-75
2022/07/01 09:15:40;;;;;;;5.68;1.60;;;18.10;91.80;;;;;;5015570;28;20033;-74
2022/07/01 09:18:11;;;;;;;4.45;1.25;;;18.20;91.50;;;;;;5015709;28;20022;-75
2022/07/01 09:20:39;;;;;;;6.30;1.25;;;18.30;91.60;;;;;;5015555;28;20493;-75
2022/07/01 09:23:10;;;;;;;6.45;1.20;;;18.30;91.50;;;;;;5016819;28;20050;-76
2022/07/01 09:25:39;;;;;;;4.45;1.10;;;18.40;91.30;;;;;;5016777;28;20471;-75
2022/07/01 09:28:08;;;;;;;4.25;1.02;;;18.40;90.70;;;;;;5017114;28;20032;-75
2022/07/01 09:30:34;;;;;;;4.10;0.75;;;18.40;89.00;;;;;;5015371;28;20076;-75
2022/07/01 09:33:14;;;;;;;3.13;0.90;;;18.50;90.00;;;;;;4983002;28;20122;-79
2022/07/01 09:35:41;;;;;;;3.50;0.82;;;18.50;89.00;;;;;;5015262;28;20021;-80
2022/07/01 09:38:09;;;;;;;3.22;1.08;;;18.50;87.90;;;;;;5015110;28;20034;-79
2022/07/01 09:40:55;;;;;;;3.63;0.90;;;18.60;86.20;;;;;;5015113;28;20057;-80
2022/07/01 09:43:23;;;;;;;4.30;1.35;;;18.70;86.10;;;;;;5016412;28;20030;-79
2022/07/01 09:46:00;;;;;;;2.50;0.75;;;18.80;85.20;;;;;;5016211;28;20034;-80
2022/07/01 09:48:48;;;;;;;5.65;0.95;;;18.90;85.70;;;;;;5016219;28;20423;-80
2022/07/01 09:51:15;;;;;;;4.40;1.05;;;19.10;84.80;;;;;;5018275;28;20038;-80
2022/07/01 09:53:42;;;;;;;3.33;0.70;;;19.20;83.10;;;;;;5034288;28;20025;-79
2022/07/01 09:56:07;;;;;;;2.85;0.80;;;19.40;83.30;;;;;;5017958;28;20029;-80
2022/07/01 09:58:35;;;;;;;4.10;0.90;;;19.40;82.40;;;;;;5035403;28;20032;-79
2022/07/01 10:01:02;;;;;;;2.70;0.60;;;19.60;81.90;;;;;;5034614;28;20490;-80
2022/07/01 10:03:32;;;;;;;2.42;0.70;;;19.70;81.20;;;;;;5034428;28;20413;-80
2022/07/01 10:06:27;;;;;;;2.05;0.68;;;19.80;80.20;;;;;;5036000;28;20033;-80
2022/07/01 10:09:22;;;;;;;1.25;0.57;;;20.00;80.10;;;;;;5035649;28;20037;-79
2022/07/01 10:12:20;;;;;;;4.10;0.73;;;20.10;79.50;;;;;;5016918;28;20025;-80
2022/07/01 10:14:48;;;;;;;2.88;0.63;;;20.20;79.10;;;;;;5034482;28;20010;-79
2022/07/01 10:17:31;;;;;;;1.92;0.57;;;20.30;78.50;;;;;;5034124;28;20025;-80
2022/07/01 10:20:07;;;;;;;2.90;0.65;;;20.30;77.30;;;;;;5034055;28;20026;-80
2022/07/01 10:22:36;;;;;;;2.88;0.45;;;20.30;76.70;;;;;;5033945;28;20390;-79
2022/07/01 10:25:30;;;;;;;4.65;0.55;;;20.20;76.20;;;;;;5034389;28;20017;-79
2022/07/01 10:28:15;;;;;;;2.60;0.77;;;20.20;74.30;;;;;;5035407;28;20017;-82
2022/07/01 10:30:54;;;;;;;2.50;0.55;;;20.10;73.40;;;;;;5033981;28;20075;-79
2022/07/01 10:33:38;;;;;;;3.45;0.68;;;20.20;74.00;;;;;;5033897;28;20389;-80
2022/07/01 10:36:07;;;;;;;3.15;0.52;;;20.30;74.30;;;;;;5035270;28;20036;-79
2022/07/01 10:38:33;;;;;;;2.85;0.60;;;20.40;74.00;;;;;;5034110;28;20025;-82
2022/07/01 10:41:09;;;;;;;2.55;0.45;;;20.60;73.10;;;;;;5017051;28;20428;-82
2022/07/01 10:43:37;;;;;;;3.33;0.60;;;20.80;72.50;;;;;;5033689;28;20026;-79
2022/07/01 10:46:03;;;;;;;3.38;0.63;;;21.00;71.80;;;;;;5033350;28;20478;-80
2022/07/01 10:48:33;;;;;;;4.13;0.68;;;21.30;71.60;;;;;;5034782;28;20052;-78
2022/07/01 10:50:59;;;;;;;4.03;0.60;;;21.40;69.50;;;;;;5017104;28;20022;-80
2022/07/01 10:53:45;;;;;;;6.38;0.88;;;21.50;69.60;;;;;;5033811;28;20034;-80
2022/07/01 10:56:16;;;;;;;3.28;0.88;;;21.70;67.70;;;;;;5035035;28;20022;-79
2022/07/01 10:58:42;;;;;;;5.93;0.50;;;22.00;67.10;;;;;;5034808;28;20026;-80
2022/07/01 11:01:08;;;;;;;4.63;0.50;;;22.20;67.20;;;;;;5033526;28;20029;-79
2022/07/01 11:03:36;;;;;;;2.13;0.40;;;22.50;67.60;;;;;;5034677;28;20034;-81
2022/07/01 11:06:02;;;;;;;4.07;0.80;;;22.80;66.70;;;;;;5034654;28;20025;-80
2022/07/01 11:08:28;;;;;;;1.35;0.60;;;23.10;67.00;;;;;;5033560;28;20029;-82
2022/07/01 11:11:02;;;;;;;2.97;0.57;;;23.40;66.40;;;;;;5033392;28;20029;-82
2022/07/01 11:13:27;;;;;;;4.03;0.55;;;23.70;63.70;;;;;;5034376;28;20036;-80
2022/07/01 11:15:54;;;;;;;5.15;0.50;;;24.10;64.40;;;;;;5033393;28;20038;-81
2022/07/01 11:18:20;;;;;;;3.17;0.47;;;24.60;61.60;;;;;;5034171;28;20030;-82
2022/07/01 11:20:46;;;;;;;3.20;0.88;;;24.90;59.60;;;;;;5034872;28;20061;-81
2022/07/01 11:23:12;;;;;;;3.42;0.60;;;25.00;58.80;;;;;;5032704;28;20202;-82
2022/07/01 11:25:38;;;;;;;2.88;0.50;;;25.40;57.60;;;;;;5034220;28;20485;-81
2022/07/01 11:28:03;;;;;;;2.70;0.55;;;25.30;55.60;;;;;;5025011;28;20029;-82
2022/07/01 11:30:29;;;;;;;4.97;0.93;;;25.00;55.10;;;;;;5034173;28;20061;-81
2022/07/01 11:32:57;;;;;;;3.25;0.60;;;24.60;55.30;;;;;;5034460;28;20562;-80
2022/07/01 11:41:04;;;;;;;1.90;0.40;;;25.20;56.90;;;;;;5024474;28;20543;-80
2022/07/01 11:43:35;;;;;;;2.67;0.40;;;25.30;56.80;;;;;;5012859;28;20029;-79
2022/07/01 11:46:03;;;;;;;1.42;0.30;;;25.40;56.90;;;;;;5014392;28;20064;-80
2022/07/01 11:48:42;;;;;;;2.40;0.45;;;25.60;56.70;;;;;;5014033;28;20030;-82
2022/07/01 11:51:19;;;;;;;1.98;0.30;;;25.70;56.70;;;;;;5014478;28;20030;-78
2022/07/01 11:53:46;;;;;;;1.83;0.28;;;25.80;56.10;;;;;;4996865;28;20034;-79
2022/07/01 11:56:13;;;;;;;4.88;0.43;;;25.90;56.00;;;;;;5014223;28;20034;-75
2022/07/01 11:58:41;;;;;;;2.10;0.30;;;26.00;55.70;;;;;;5013993;28;20021;-75
2022/07/01 12:01:08;;;;;;;4.68;0.38;;;26.00;55.20;;;;;;5012823;28;20417;-73
2022/07/01 12:03:34;;;;;;;3.83;0.40;;;26.00;54.70;;;;;;5012946;28;20057;-73
2022/07/01 12:06:00;;;;;;;2.25;0.40;;;26.00;54.30;;;;;;5021073;28;20026;-73
2022/07/01 12:08:26;;;;;;;3.75;0.30;;;26.10;54.20;;;;;;5032390;28;20100;-74
2022/07/01 12:10:52;;;;;;;3.50;0.30;;;26.10;54.10;;;;;;5031720;28;20056;-74
2022/07/01 12:13:26;;;;;;;2.22;0.30;;;26.20;53.30;;;;;;5015749;28;20041;-74
2022/07/01 12:15:52;;;;;;;2.22;0.28;;;26.30;53.00;;;;;;5015764;28;20489;-74
2022/07/01 12:18:19;;;;;;;2.92;0.50;;;26.30;52.80;;;;;;5030225;28;20033;-80
2022/07/01 12:20:54;;;;;;;4.90;0.30;;;26.20;52.50;;;;;;5034040;28;20052;-79
2022/07/01 12:23:20;;;;;;;1.95;0.43;;;26.00;52.80;;;;;;5031611;28;20057;-81
2022/07/01 12:25:52;;;;;;;3.38;0.50;;;25.90;52.40;;;;;;5032415;28;20033;-79
2022/07/01 12:28:29;;;;;;;3.17;0.40;;;26.00;52.70;;;;;;5032343;28;20104;-79
2022/07/01 12:31:09;;;;;;;3.30;0.55;;;26.00;52.20;;;;;;5033503;28;20028;-79
2022/07/01 12:33:37;;;;;;;2.58;0.30;;;25.90;52.00;;;;;;5033519;28;20025;-79
2022/07/01 12:36:04;;;;;;;3.88;0.30;;;25.70;51.80;;;;;;5033198;28;20024;-78
2022/07/01 12:38:30;;;;;;;1.13;0.40;;;25.50;51.60;;;;;;5033423;28;20083;-79
2022/07/01 12:40:56;;;;;;;4.32;0.55;;;25.40;51.60;;;;;;5025480;28;20429;-80
2022/07/01 12:43:23;;;;;;;2.55;0.40;;;25.40;51.20;;;;;;5035468;28;20033;-81
2022/07/01 12:45:49;;;;;;;1.63;0.20;;;25.40;51.90;;;;;;5029485;28;20030;-78
2022/07/01 12:48:15;;;;;;;3.92;0.40;;;25.60;52.20;;;;;;5024955;28;20393;-82
2022/07/01 12:50:40;;;;;;;1.52;0.25;;;25.80;52.00;;;;;;5025270;28;20482;-77
2022/07/01 12:53:06;;;;;;;1.73;0.32;;;26.00;52.00;;;;;;5031281;28;20036;-78
2022/07/01 12:55:37;;;;;;;1.60;0.30;;;26.30;51.40;;;;;;5037035;28;20025;-78
2022/07/01 12:58:08;;;;;;;1.75;0.30;;;26.50;51.50;;;;;;5036819;28;20144;-78